sensor_id;sensor_type;location;lat;lon;timestamp;P1;durP1;ratioP1;P2;durP2;ratioP2
19113;SDS011;9689;51.052;13.772;2022-11-23T00:04:21;33.75;;;16.20;;
19113;SDS011;9689;51.052;13.772;2022-11-23T00:09:24;41.67;;;17.85;;
19113;SDS011;9689;51.052;13.772;2022-11-23T00:14:24;45.63;;;18.15;;
19113;SDS011;9689;51.052;13.772;2022-11-23T00:19:27;41.92;;;18.58;;
19113;SDS011;9689;51.052;13.772;2022-11-23T00:24:28;41.55;;;17.30;;
19113;SDS011;9689;51.052;13.772;2022-11-23T00:29:29;40.38;;;16.83;;
19113;SDS011;9689;51.052;13.772;2022-11-23T00:34:31;38.60;;;17.58;;
19113;SDS011;9689;51.052;13.772;2022-11-23T00:39:32;42.33;;;17.85;;
19113;SDS011;9689;51.052;13.772;2022-11-23T00:44:33;41.10;;;17.25;;
19113;SDS011;9689;51.052;13.772;2022-11-23T00:49:35;38.67;;;15.50;;
19113;SDS011;9689;51.052;13.772;2022-11-23T00:54:36;41.08;;;16.83;;
19113;SDS011;9689;51.052;13.772;2022-11-23T00:59:38;40.13;;;16.08;;
19113;SDS011;9689;51.052;13.772;2022-11-23T01:04:40;36.83;;;16.58;;
19113;SDS011;9689;51.052;13.772;2022-11-23T01:09:41;38.85;;;16.02;;
19113;SDS011;9689;51.052;13.772;2022-11-23T01:14:44;40.90;;;16.42;;
19113;SDS011;9689;51.052;13.772;2022-11-23T01:19:46;39.78;;;17.00;;
19113;SDS011;9689;51.052;13.772;2022-11-23T01:24:47;38.67;;;16.75;;
19113;SDS011;9689;51.052;13.772;2022-11-23T01:29:49;37.40;;;16.90;;
19113;SDS011;9689;51.052;13.772;2022-11-23T01:34:52;35.33;;;15.80;;
19113;SDS011;9689;51.052;13.772;2022-11-23T01:39:53;40.65;;;16.75;;
19113;SDS011;9689;51.052;13.772;2022-11-23T01:45:05;38.50;;;16.75;;
19113;SDS011;9689;51.052;13.772;2022-11-23T01:50:39;38.10;;;16.50;;
19113;SDS011;9689;51.052;13.772;2022-11-23T01:55:41;36.15;;;17.27;;
19113;SDS011;9689;51.052;13.772;2022-11-23T02:00:43;40.25;;;17.08;;
19113;SDS011;9689;51.052;13.772;2022-11-23T02:05:48;41.13;;;16.90;;
19113;SDS011;9689;51.052;13.772;2022-11-23T02:10:52;38.63;;;16.63;;
19113;SDS011;9689;51.052;13.772;2022-11-23T02:15:56;47.72;;;17.35;;
19113;SDS011;9689;51.052;13.772;2022-11-23T02:20:59;43.92;;;17.42;;
19113;SDS011;9689;51.052;13.772;2022-11-23T02:26:04;40.08;;;16.98;;
19113;SDS011;9689;51.052;13.772;2022-11-23T02:31:10;46.10;;;16.92;;
19113;SDS011;9689;51.052;13.772;2022-11-23T02:36:24;40.35;;;17.27;;
19113;SDS011;9689;51.052;13.772;2022-11-23T02:41:38;40.05;;;16.95;;
19113;SDS011;9689;51.052;13.772;2022-11-23T02:46:40;35.70;;;16.33;;
19113;SDS011;9689;51.052;13.772;2022-11-23T02:51:41;47.63;;;17.70;;
19113;SDS011;9689;51.052;13.772;2022-11-23T02:56:44;40.83;;;16.73;;
19113;SDS011;9689;51.052;13.772;2022-11-23T03:01:45;42.35;;;18.45;;
19113;SDS011;9689;51.052;13.772;2022-11-23T03:06:46;46.13;;;17.67;;
19113;SDS011;9689;51.052;13.772;2022-11-23T03:11:48;41.33;;;18.15;;
19113;SDS011;9689;51.052;13.772;2022-11-23T03:16:49;40.10;;;18.52;;
19113;SDS011;9689;51.052;13.772;2022-11-23T03:21:51;44.58;;;17.77;;
19113;SDS011;9689;51.052;13.772;2022-11-23T03:26:54;50.13;;;18.35;;
19113;SDS011;9689;51.052;13.772;2022-11-23T03:31:55;40.35;;;17.38;;
19113;SDS011;9689;51.052;13.772;2022-11-23T03:36:56;44.92;;;18.38;;
19113;SDS011;9689;51.052;13.772;2022-11-23T03:41:58;41.63;;;16.55;;
19113;SDS011;9689;51.052;13.772;2022-11-23T03:47:04;41.67;;;16.52;;
19113;SDS011;9689;51.052;13.772;2022-11-23T03:52:06;44.90;;;18.13;;
19113;SDS011;9689;51.052;13.772;2022-11-23T03:57:09;42.80;;;17.35;;
19113;SDS011;9689;51.052;13.772;2022-11-23T04:02:09;37.88;;;16.23;;
19113;SDS011;9689;51.052;13.772;2022-11-23T04:07:18;42.50;;;17.25;;
19113;SDS011;9689;51.052;13.772;2022-11-23T04:12:24;49.25;;;17.58;;
19113;SDS011;9689;51.052;13.772;2022-11-23T04:17:25;37.28;;;15.50;;
19113;SDS011;9689;51.052;13.772;2022-11-23T04:22:26;45.10;;;17.00;;
19113;SDS011;9689;51.052;13.772;2022-11-23T04:27:28;40.97;;;16.17;;
19113;SDS011;9689;51.052;13.772;2022-11-23T04:32:29;39.78;;;15.75;;
19113;SDS011;9689;51.052;13.772;2022-11-23T04:37:31;46.30;;;18.42;;
19113;SDS011;9689;51.052;13.772;2022-11-23T04:42:33;44.63;;;17.17;;
19113;SDS011;9689;51.052;13.772;2022-11-23T04:47:34;40.13;;;16.45;;
19113;SDS011;9689;51.052;13.772;2022-11-23T04:52:40;47.08;;;17.67;;
19113;SDS011;9689;51.052;13.772;2022-11-23T04:57:49;46.88;;;16.67;;
19113;SDS011;9689;51.052;13.772;2022-11-23T05:02:50;43.67;;;17.02;;
19113;SDS011;9689;51.052;13.772;2022-11-23T05:07:55;47.40;;;17.77;;
19113;SDS011;9689;51.052;13.772;2022-11-23T05:13:10;48.53;;;17.13;;
19113;SDS011;9689;51.052;13.772;2022-11-23T05:18:11;39.75;;;16.88;;
19113;SDS011;9689;51.052;13.772;2022-11-23T05:23:12;41.05;;;18.15;;
19113;SDS011;9689;51.052;13.772;2022-11-23T05:28:17;42.90;;;17.35;;
19113;SDS011;9689;51.052;13.772;2022-11-23T05:33:43;45.53;;;18.42;;
19113;SDS011;9689;51.052;13.772;2022-11-23T05:38:46;49.38;;;18.83;;
19113;SDS011;9689;51.052;13.772;2022-11-23T05:43:56;45.53;;;18.45;;
19113;SDS011;9689;51.052;13.772;2022-11-23T05:48:59;42.70;;;17.30;;
19113;SDS011;9689;51.052;13.772;2022-11-23T05:54:04;51.50;;;19.27;;
19113;SDS011;9689;51.052;13.772;2022-11-23T05:59:14;46.85;;;19.52;;
19113;SDS011;9689;51.052;13.772;2022-11-23T06:04:20;48.00;;;19.65;;
19113;SDS011;9689;51.052;13.772;2022-11-23T06:09:21;41.30;;;16.95;;
19113;SDS011;9689;51.052;13.772;2022-11-23T06:14:25;49.53;;;19.13;;
19113;SDS011;9689;51.052;13.772;2022-11-23T06:19:27;44.92;;;19.38;;
19113;SDS011;9689;51.052;13.772;2022-11-23T06:24:30;46.40;;;19.10;;
19113;SDS011;9689;51.052;13.772;2022-11-23T06:29:58;48.13;;;18.65;;
19113;SDS011;9689;51.052;13.772;2022-11-23T06:35:00;43.67;;;18.55;;
19113;SDS011;9689;51.052;13.772;2022-11-23T06:40:06;38.40;;;17.05;;
19113;SDS011;9689;51.052;13.772;2022-11-23T06:45:10;46.85;;;18.73;;
19113;SDS011;9689;51.052;13.772;2022-11-23T06:50:11;45.35;;;19.02;;
19113;SDS011;9689;51.052;13.772;2022-11-23T06:55:14;49.17;;;20.00;;
19113;SDS011;9689;51.052;13.772;2022-11-23T07:00:17;48.55;;;19.15;;
19113;SDS011;9689;51.052;13.772;2022-11-23T07:05:19;40.42;;;19.00;;
19113;SDS011;9689;51.052;13.772;2022-11-23T07:10:21;47.13;;;20.13;;
19113;SDS011;9689;51.052;13.772;2022-11-23T07:15:27;46.08;;;18.27;;
19113;SDS011;9689;51.052;13.772;2022-11-23T07:20:28;44.50;;;18.58;;
19113;SDS011;9689;51.052;13.772;2022-11-23T07:25:29;48.53;;;18.65;;
19113;SDS011;9689;51.052;13.772;2022-11-23T07:35:37;47.17;;;19.40;;
19113;SDS011;9689;51.052;13.772;2022-11-23T07:40:39;49.78;;;19.58;;
19113;SDS011;9689;51.052;13.772;2022-11-23T07:45:55;50.17;;;19.33;;
19113;SDS011;9689;51.052;13.772;2022-11-23T07:50:56;39.13;;;17.85;;
19113;SDS011;9689;51.052;13.772;2022-11-23T07:55:57;49.10;;;19.70;;
19113;SDS011;9689;51.052;13.772;2022-11-23T08:00:59;44.47;;;17.45;;
19113;SDS011;9689;51.052;13.772;2022-11-23T08:06:00;46.25;;;18.65;;
19113;SDS011;9689;51.052;13.772;2022-11-23T08:11:00;36.38;;;16.45;;
19113;SDS011;9689;51.052;13.772;2022-11-23T08:16:03;42.95;;;18.08;;
19113;SDS011;9689;51.052;13.772;2022-11-23T08:21:04;43.80;;;17.75;;
19113;SDS011;9689;51.052;13.772;2022-11-23T08:26:05;36.80;;;16.55;;
19113;SDS011;9689;51.052;13.772;2022-11-23T08:31:13;44.63;;;17.77;;
19113;SDS011;9689;51.052;13.772;2022-11-23T08:36:14;48.47;;;18.92;;
19113;SDS011;9689;51.052;13.772;2022-11-23T08:41:15;45.20;;;18.05;;
19113;SDS011;9689;51.052;13.772;2022-11-23T08:46:20;38.40;;;17.52;;
19113;SDS011;9689;51.052;13.772;2022-11-23T08:51:20;41.75;;;18.50;;
19113;SDS011;9689;51.052;13.772;2022-11-23T08:56:21;40.97;;;17.90;;
19113;SDS011;9689;51.052;13.772;2022-11-23T09:01:24;42.80;;;18.05;;
19113;SDS011;9689;51.052;13.772;2022-11-23T09:06:25;39.60;;;17.88;;
19113;SDS011;9689;51.052;13.772;2022-11-23T09:11:27;41.08;;;16.80;;
19113;SDS011;9689;51.052;13.772;2022-11-23T09:16:29;44.33;;;16.70;;
19113;SDS011;9689;51.052;13.772;2022-11-23T09:21:32;38.17;;;15.55;;
19113;SDS011;9689;51.052;13.772;2022-11-23T09:26:34;41.55;;;16.50;;
19113;SDS011;9689;51.052;13.772;2022-11-23T09:31:37;37.50;;;15.15;;
19113;SDS011;9689;51.052;13.772;2022-11-23T09:36:40;40.05;;;16.23;;
19113;SDS011;9689;51.052;13.772;2022-11-23T09:41:45;32.67;;;14.77;;
19113;SDS011;9689;51.052;13.772;2022-11-23T09:46:58;41.95;;;16.55;;
19113;SDS011;9689;51.052;13.772;2022-11-23T09:52:13;37.28;;;15.18;;
19113;SDS011;9689;51.052;13.772;2022-11-23T09:57:18;36.17;;;13.70;;
19113;SDS011;9689;51.052;13.772;2022-11-23T10:02:22;38.65;;;15.63;;
19113;SDS011;9689;51.052;13.772;2022-11-23T10:07:31;30.42;;;13.48;;
19113;SDS011;9689;51.052;13.772;2022-11-23T10:12:43;30.00;;;13.25;;
19113;SDS011;9689;51.052;13.772;2022-11-23T10:23:20;32.65;;;14.45;;
19113;SDS011;9689;51.052;13.772;2022-11-23T10:28:33;27.60;;;13.43;;
19113;SDS011;9689;51.052;13.772;2022-11-23T10:33:38;25.73;;;12.13;;
19113;SDS011;9689;51.052;13.772;2022-11-23T10:38:42;27.20;;;13.32;;
19113;SDS011;9689;51.052;13.772;2022-11-23T10:43:46;29.10;;;13.27;;
19113;SDS011;9689;51.052;13.772;2022-11-23T10:48:52;29.73;;;13.18;;
19113;SDS011;9689;51.052;13.772;2022-11-23T10:53:54;30.15;;;13.27;;
19113;SDS011;9689;51.052;13.772;2022-11-23T10:59:03;31.67;;;13.65;;
19113;SDS011;9689;51.052;13.772;2022-11-23T11:04:10;27.10;;;12.30;;
19113;SDS011;9689;51.052;13.772;2022-11-23T11:09:23;27.90;;;12.35;;
19113;SDS011;9689;51.052;13.772;2022-11-23T11:14:24;29.33;;;12.55;;
19113;SDS011;9689;51.052;13.772;2022-11-23T11:19:29;28.08;;;12.70;;
19113;SDS011;9689;51.052;13.772;2022-11-23T11:24:32;23.70;;;11.30;;
19113;SDS011;9689;51.052;13.772;2022-11-23T11:29:38;25.73;;;11.50;;
19113;SDS011;9689;51.052;13.772;2022-11-23T11:34:49;24.98;;;10.70;;
19113;SDS011;9689;51.052;13.772;2022-11-23T11:39:56;21.90;;;10.88;;
19113;SDS011;9689;51.052;13.772;2022-11-23T11:45:03;25.85;;;10.90;;
19113;SDS011;9689;51.052;13.772;2022-11-23T11:50:14;22.08;;;10.30;;
19113;SDS011;9689;51.052;13.772;2022-11-23T11:55:20;25.15;;;10.35;;
19113;SDS011;9689;51.052;13.772;2022-11-23T12:00:24;19.40;;;9.40;;
19113;SDS011;9689;51.052;13.772;2022-11-23T12:05:29;21.92;;;10.30;;
19113;SDS011;9689;51.052;13.772;2022-11-23T12:10:39;23.25;;;10.32;;
19113;SDS011;9689;51.052;13.772;2022-11-23T12:15:46;20.83;;;10.45;;
19113;SDS011;9689;51.052;13.772;2022-11-23T12:20:54;24.50;;;10.65;;
19113;SDS011;9689;51.052;13.772;2022-11-23T12:26:02;21.17;;;9.77;;
19113;SDS011;9689;51.052;13.772;2022-11-23T12:31:13;21.85;;;9.02;;
19113;SDS011;9689;51.052;13.772;2022-11-23T12:36:34;20.77;;;9.18;;
19113;SDS011;9689;51.052;13.772;2022-11-23T12:41:55;23.58;;;9.68;;
19113;SDS011;9689;51.052;13.772;2022-11-23T12:47:05;25.55;;;10.93;;
19113;SDS011;9689;51.052;13.772;2022-11-23T12:52:21;21.85;;;10.40;;
19113;SDS011;9689;51.052;13.772;2022-11-23T12:57:30;29.50;;;11.90;;
19113;SDS011;9689;51.052;13.772;2022-11-23T13:02:50;28.30;;;12.10;;
19113;SDS011;9689;51.052;13.772;2022-11-23T13:08:21;26.60;;;12.25;;
19113;SDS011;9689;51.052;13.772;2022-11-23T13:13:40;36.00;;;16.05;;
19113;SDS011;9689;51.052;13.772;2022-11-23T13:18:55;35.40;;;14.57;;
19113;SDS011;9689;51.052;13.772;2022-11-23T13:34:46;34.58;;;15.57;;
19113;SDS011;9689;51.052;13.772;2022-11-23T13:40:01;33.15;;;15.43;;
19113;SDS011;9689;51.052;13.772;2022-11-23T13:45:15;36.95;;;16.52;;
19113;SDS011;9689;51.052;13.772;2022-11-23T13:50:23;35.78;;;16.00;;
19113;SDS011;9689;51.052;13.772;2022-11-23T13:55:28;39.75;;;15.77;;
19113;SDS011;9689;51.052;13.772;2022-11-23T14:00:43;36.90;;;15.50;;
19113;SDS011;9689;51.052;13.772;2022-11-23T14:05:52;41.33;;;16.70;;
19113;SDS011;9689;51.052;13.772;2022-11-23T14:10:59;38.25;;;15.57;;
19113;SDS011;9689;51.052;13.772;2022-11-23T14:16:08;41.10;;;16.17;;
19113;SDS011;9689;51.052;13.772;2022-11-23T14:21:17;36.85;;;15.77;;
19113;SDS011;9689;51.052;13.772;2022-11-23T14:26:29;39.85;;;15.93;;
19113;SDS011;9689;51.052;13.772;2022-11-23T14:31:35;40.67;;;16.63;;
19113;SDS011;9689;51.052;13.772;2022-11-23T14:36:45;43.25;;;15.90;;
19113;SDS011;9689;51.052;13.772;2022-11-23T14:41:55;41.95;;;15.48;;
19113;SDS011;9689;51.052;13.772;2022-11-23T14:47:01;43.25;;;16.63;;
19113;SDS011;9689;51.052;13.772;2022-11-23T14:52:03;39.00;;;14.98;;
19113;SDS011;9689;51.052;13.772;2022-11-23T14:57:06;37.83;;;16.20;;
19113;SDS011;9689;51.052;13.772;2022-11-23T15:02:13;42.38;;;17.52;;
19113;SDS011;9689;51.052;13.772;2022-11-23T15:07:18;34.92;;;15.65;;
19113;SDS011;9689;51.052;13.772;2022-11-23T15:12:24;40.03;;;14.95;;
19113;SDS011;9689;51.052;13.772;2022-11-23T15:17:26;34.30;;;15.82;;
19113;SDS011;9689;51.052;13.772;2022-11-23T15:22:27;42.97;;;15.88;;
19113;SDS011;9689;51.052;13.772;2022-11-23T15:27:30;39.28;;;17.20;;
19113;SDS011;9689;51.052;13.772;2022-11-23T15:32:31;32.95;;;15.80;;
19113;SDS011;9689;51.052;13.772;2022-11-23T15:37:35;37.65;;;15.95;;
19113;SDS011;9689;51.052;13.772;2022-11-23T15:42:43;40.33;;;16.08;;
19113;SDS011;9689;51.052;13.772;2022-11-23T15:47:46;39.03;;;16.88;;
19113;SDS011;9689;51.052;13.772;2022-11-23T15:52:47;40.20;;;15.85;;
19113;SDS011;9689;51.052;13.772;2022-11-23T15:57:51;35.40;;;15.27;;
19113;SDS011;9689;51.052;13.772;2022-11-23T16:02:57;43.03;;;17.58;;
19113;SDS011;9689;51.052;13.772;2022-11-23T16:08:22;38.25;;;16.50;;
19113;SDS011;9689;51.052;13.772;2022-11-23T16:13:35;49.38;;;17.95;;
19113;SDS011;9689;51.052;13.772;2022-11-23T16:18:40;44.67;;;17.63;;
19113;SDS011;9689;51.052;13.772;2022-11-23T16:23:44;41.22;;;18.10;;
19113;SDS011;9689;51.052;13.772;2022-11-23T16:28:53;42.78;;;17.77;;
19113;SDS011;9689;51.052;13.772;2022-11-23T16:33:56;47.90;;;18.55;;
19113;SDS011;9689;51.052;13.772;2022-11-23T16:38:57;45.80;;;18.08;;
19113;SDS011;9689;51.052;13.772;2022-11-23T16:44:05;46.10;;;18.45;;
19113;SDS011;9689;51.052;13.772;2022-11-23T16:49:10;53.55;;;19.50;;
19113;SDS011;9689;51.052;13.772;2022-11-23T16:54:15;46.55;;;17.67;;
19113;SDS011;9689;51.052;13.772;2022-11-23T16:59:24;48.45;;;20.17;;
19113;SDS011;9689;51.052;13.772;2022-11-23T17:04:28;49.03;;;19.38;;
19113;SDS011;9689;51.052;13.772;2022-11-23T17:09:29;48.70;;;18.67;;
19113;SDS011;9689;51.052;13.772;2022-11-23T17:14:33;51.47;;;21.55;;
19113;SDS011;9689;51.052;13.772;2022-11-23T17:19:44;51.35;;;21.77;;
19113;SDS011;9689;51.052;13.772;2022-11-23T17:24:47;52.10;;;19.98;;
19113;SDS011;9689;51.052;13.772;2022-11-23T17:29:54;52.67;;;21.35;;
19113;SDS011;9689;51.052;13.772;2022-11-23T17:34:56;53.10;;;20.52;;
19113;SDS011;9689;51.052;13.772;2022-11-23T17:39:59;49.80;;;21.20;;
19113;SDS011;9689;51.052;13.772;2022-11-23T17:45:01;46.28;;;21.40;;
19113;SDS011;9689;51.052;13.772;2022-11-23T17:50:03;49.10;;;21.40;;
19113;SDS011;9689;51.052;13.772;2022-11-23T17:55:05;53.47;;;20.65;;
19113;SDS011;9689;51.052;13.772;2022-11-23T18:00:13;54.63;;;21.48;;
19113;SDS011;9689;51.052;13.772;2022-11-23T18:05:16;52.67;;;21.65;;
19113;SDS011;9689;51.052;13.772;2022-11-23T18:10:20;52.65;;;20.92;;
19113;SDS011;9689;51.052;13.772;2022-11-23T18:15:23;52.85;;;21.60;;
19113;SDS011;9689;51.052;13.772;2022-11-23T18:20:24;52.67;;;21.40;;
19113;SDS011;9689;51.052;13.772;2022-11-23T18:25:25;59.38;;;22.30;;
19113;SDS011;9689;51.052;13.772;2022-11-23T18:30:27;60.58;;;22.13;;
19113;SDS011;9689;51.052;13.772;2022-11-23T18:35:28;51.15;;;21.42;;
19113;SDS011;9689;51.052;13.772;2022-11-23T18:40:29;57.13;;;22.30;;
19113;SDS011;9689;51.052;13.772;2022-11-23T18:45:31;55.53;;;23.17;;
19113;SDS011;9689;51.052;13.772;2022-11-23T18:50:32;61.67;;;23.95;;
19113;SDS011;9689;51.052;13.772;2022-11-23T18:55:33;55.25;;;23.27;;
19113;SDS011;9689;51.052;13.772;2022-11-23T19:00:35;57.03;;;22.60;;
19113;SDS011;9689;51.052;13.772;2022-11-23T19:05:36;65.05;;;25.40;;
19113;SDS011;9689;51.052;13.772;2022-11-23T19:10:37;65.75;;;23.85;;
19113;SDS011;9689;51.052;13.772;2022-11-23T19:15:39;57.95;;;24.13;;
19113;SDS011;9689;51.052;13.772;2022-11-23T19:20:40;64.75;;;24.55;;
19113;SDS011;9689;51.052;13.772;2022-11-23T19:25:41;64.80;;;25.63;;
19113;SDS011;9689;51.052;13.772;2022-11-23T19:30:43;71.65;;;26.02;;
19113;SDS011;9689;51.052;13.772;2022-11-23T19:35:44;71.80;;;26.33;;
19113;SDS011;9689;51.052;13.772;2022-11-23T19:40:52;69.43;;;25.42;;
19113;SDS011;9689;51.052;13.772;2022-11-23T19:45:54;66.32;;;25.83;;
19113;SDS011;9689;51.052;13.772;2022-11-23T19:50:56;60.60;;;24.48;;
19113;SDS011;9689;51.052;13.772;2022-11-23T19:55:59;58.85;;;24.13;;
19113;SDS011;9689;51.052;13.772;2022-11-23T20:01:02;75.07;;;28.13;;
19113;SDS011;9689;51.052;13.772;2022-11-23T20:06:05;69.65;;;26.42;;
19113;SDS011;9689;51.052;13.772;2022-11-23T20:11:09;67.25;;;25.90;;
19113;SDS011;9689;51.052;13.772;2022-11-23T20:16:13;66.55;;;25.77;;
19113;SDS011;9689;51.052;13.772;2022-11-23T20:21:16;64.78;;;26.05;;
19113;SDS011;9689;51.052;13.772;2022-11-23T20:26:18;64.90;;;25.63;;
19113;SDS011;9689;51.052;13.772;2022-11-23T20:31:21;65.07;;;25.48;;
19113;SDS011;9689;51.052;13.772;2022-11-23T20:36:23;64.85;;;25.55;;
19113;SDS011;9689;51.052;13.772;2022-11-23T20:41:27;65.15;;;26.75;;
19113;SDS011;9689;51.052;13.772;2022-11-23T20:46:32;57.75;;;24.00;;
19113;SDS011;9689;51.052;13.772;2022-11-23T20:51:53;64.25;;;26.05;;
19113;SDS011;9689;51.052;13.772;2022-11-23T20:56:54;67.93;;;24.92;;
19113;SDS011;9689;51.052;13.772;2022-11-23T21:01:59;62.50;;;24.65;;
19113;SDS011;9689;51.052;13.772;2022-11-23T21:07:00;64.03;;;26.10;;
19113;SDS011;9689;51.052;13.772;2022-11-23T21:12:01;58.45;;;25.27;;
19113;SDS011;9689;51.052;13.772;2022-11-23T21:17:21;68.85;;;26.05;;
19113;SDS011;9689;51.052;13.772;2022-11-23T21:22:22;63.70;;;25.45;;
19113;SDS011;9689;51.052;13.772;2022-11-23T21:27:23;72.55;;;28.17;;
19113;SDS011;9689;51.052;13.772;2022-11-23T21:32:27;62.28;;;26.02;;
19113;SDS011;9689;51.052;13.772;2022-11-23T21:37:28;56.60;;;24.20;;
19113;SDS011;9689;51.052;13.772;2022-11-23T21:42:29;68.07;;;24.25;;
19113;SDS011;9689;51.052;13.772;2022-11-23T21:47:31;71.05;;;24.63;;
19113;SDS011;9689;51.052;13.772;2022-11-23T21:52:33;63.05;;;23.73;;
19113;SDS011;9689;51.052;13.772;2022-11-23T21:57:34;67.13;;;24.05;;
19113;SDS011;9689;51.052;13.772;2022-11-23T22:02:36;61.72;;;23.40;;
19113;SDS011;9689;51.052;13.772;2022-11-23T22:07:37;63.67;;;25.25;;
19113;SDS011;9689;51.052;13.772;2022-11-23T22:12:38;66.82;;;24.95;;
19113;SDS011;9689;51.052;13.772;2022-11-23T22:17:40;62.45;;;23.50;;
19113;SDS011;9689;51.052;13.772;2022-11-23T22:22:41;63.03;;;26.15;;
19113;SDS011;9689;51.052;13.772;2022-11-23T22:27:41;59.50;;;24.52;;
19113;SDS011;9689;51.052;13.772;2022-11-23T22:32:43;60.42;;;24.23;;
19113;SDS011;9689;51.052;13.772;2022-11-23T22:37:44;68.38;;;24.98;;
19113;SDS011;9689;51.052;13.772;2022-11-23T22:42:45;57.42;;;23.92;;
19113;SDS011;9689;51.052;13.772;2022-11-23T22:47:47;57.80;;;24.00;;
19113;SDS011;9689;51.052;13.772;2022-11-23T22:52:48;66.03;;;24.52;;
19113;SDS011;9689;51.052;13.772;2022-11-23T22:57:49;68.57;;;23.60;;
19113;SDS011;9689;51.052;13.772;2022-11-23T23:02:52;62.83;;;25.10;;
19113;SDS011;9689;51.052;13.772;2022-11-23T23:07:54;74.78;;;25.38;;
19113;SDS011;9689;51.052;13.772;2022-11-23T23:12:55;66.45;;;23.70;;
19113;SDS011;9689;51.052;13.772;2022-11-23T23:17:57;64.70;;;25.65;;
19113;SDS011;9689;51.052;13.772;2022-11-23T23:22:58;57.97;;;24.25;;
19113;SDS011;9689;51.052;13.772;2022-11-23T23:27:59;65.20;;;24.02;;
19113;SDS011;9689;51.052;13.772;2022-11-23T23:33:01;62.50;;;25.80;;
19113;SDS011;9689;51.052;13.772;2022-11-23T23:38:02;65.85;;;25.40;;
19113;SDS011;9689;51.052;13.772;2022-11-23T23:43:03;62.13;;;24.38;;
19113;SDS011;9689;51.052;13.772;2022-11-23T23:48:05;62.67;;;23.58;;
19113;SDS011;9689;51.052;13.772;2022-11-23T23:53:06;65.80;;;24.83;;
19113;SDS011;9689;51.052;13.772;2022-11-23T23:58:06;63.50;;;24.95;;
